This is the latest recevied weather packets stored in our database for station/object SP2ARQ-13. If no packets are shown the sender has not sent any weather packets the latest 10 day(s).
| Time | Temp. | Humidity | Pressure | Rain* | Wind** | Luminosity | Snow |
|---|---|---|---|---|---|---|---|
| 1777721254 | 30° C | 28% | 1021.6 hPa | - | - | - | - |
| 1777720354 | 28.89° C | 31% | 1021.8 hPa | - | - | - | - |
| 1777719454 | 29.44° C | 29% | 1022 hPa | - | - | - | - |
| 1777718554 | 29.44° C | 31% | 1022.2 hPa | - | - | - | - |
| 1777717654 | 28.33° C | 31% | 1022.4 hPa | - | - | - | - |
| 1777716753 | 27.22° C | 32% | 1022.4 hPa | - | - | - | - |
| 1777715853 | 27.22° C | 33% | 1022.5 hPa | - | - | - | - |
| 1777714953 | 27.78° C | 32% | 1022.7 hPa | - | - | - | - |
| 1777714053 | 26.11° C | 35% | 1022.9 hPa | - | - | - | - |
| 1777713153 | 25.56° C | 36% | 1023.1 hPa | - | - | - | - |
| 1777712253 | 25° C | 38% | 1023.1 hPa | - | - | - | - |
| 1777711352 | 24.44° C | 38% | 1023.3 hPa | - | - | - | - |
| 1777710452 | 23.89° C | 40% | 1023.4 hPa | - | - | - | - |
| 1777709552 | 22.22° C | 40% | 1023.5 hPa | - | - | - | - |
| 1777708652 | 21.11° C | 42% | 1023.5 hPa | - | - | - | - |
| 1777707752 | 20.56° C | 43% | 1023.6 hPa | - | - | - | - |
| 1777706851 | 20.56° C | 44% | 1023.5 hPa | - | - | - | - |
| 1777705951 | 19.44° C | 44% | 1023.6 hPa | - | - | - | - |
| 1777705051 | 18.89° C | 45% | 1023.6 hPa | - | - | - | - |
| 1777704151 | 17.78° C | 48% | 1023.8 hPa | - | - | - | - |
| 1777703251 | 17.22° C | 51% | 1023.7 hPa | - | - | - | - |
| 1777702351 | 16.11° C | 54% | 1023.7 hPa | - | - | - | - |
| 1777701450 | 14.44° C | 58% | 1023.8 hPa | - | - | - | - |
| 1777700550 | 13.33° C | 61% | 1023.7 hPa | - | - | - | - |
| 1777699650 | 12.22° C | 64% | 1023.7 hPa | - | - | - | - |
* Rain since midnight (hover to see other rain measurements)
** Current wind speed in m/s (hover to see current wind gust speed)